Aviation Digital Data Service (ADDS)

Output produced by METARs form (0624 UTC 23 February 2019)
found at http://www.aviationweather.gov/metar/data/
 
LTAF 230550Z 03006KT 9999 SCT035 BKN100 12/08 Q1019 NOSIG RMK RWY23 04007KT
TAF LTAF 230440Z 2306/2406 05005KT 9999 BKN035 
     TEMPO 2308/2312 -SHRA 
     TEMPO 2314/2317 -TSRA FEW025CB BKN030 
     BECMG 2315/2317 4000 BR 
     TEMPO 2318/2322 -SHRA 
     BECMG 2320/2322 9999 NSW
       
LTCP 230550Z 06007KT 8000 -RA SCT012 BKN035 OVC090 06/05 Q1021
TAF COR LTCP 230440Z 2306/2315 07013KT 7000 -RA SCT010 BKN033 OVC080 
     TEMPO 2306/2309 3500 BR
       
LTBJ 230550Z 09003KT 060V230 6000 SCT035 BKN100 07/04 Q1014 BECMG 16012KT TEMPO -TSRA
TAF LTBJ 230440Z 2306/2406 16012KT 9999 -SHRA SCT030 BKN100 
     TEMPO 2306/2308 -TSRA FEW015CB BKN025 
     TEMPO 2311/2313 16015G30KT 4000 +TSRA SCT015CB BKN025 
     BECMG 2315/2317 34012KT
       
TAF LTAH 230440Z 2306/2315 VRB02KT 9999 SCT035 BKN100 
     TEMPO 2312/2315 -SHRA
       
LTCO 230550Z VRB02KT 2000 -SN BR BKN030 BKN060 M07/M08 Q1022
TAF LTCO 230440Z 2306/2315 VRB02KT 3200 BR BKN028 BKN070 
     TEMPO 2306/2309 2000 -SN 
     BECMG 2308/2310 6000
       
TAF LTBT 230440Z 2306/2315 13009KT 9999 SCT035 BKN100 
     TEMPO 2306/2309 -SHRA 
     BECMG 2309/2311 01013KT -SHRA
       
TAF LTAE 230440Z 2306/2315 VRB02KT 9999 SCT040 BKN100 
     TEMPO 2313/2315 -SHRA BKN030 BKN080
       
LTBY 230550Z 13004KT 080V160 6000 SCT040 BKN100 01/M01 Q1016
TAF COR LTBY 230440Z 2306/2315 VRB02KT 9999 SCT035 BKN100 
     TEMPO 2312/2315 -SHRA
       
LTAI 230601Z 03005KT 9999 TS FEW015CB BKN025 10/08 Q1018 BECMG TL0800 -TSRA RMK RWY18C 05004KT RWY36R 03006KT RWY18L 05006KT 020V080
TAF LTAI 230440Z 2306/2406 04008KT 9999 -SHRA FEW020CB BKN030 
     BECMG 2306/2308 -TSRA FEW015CB BKN025 
     PROB40 
     TEMPO 2309/2312 4000 TSRA 
     TEMPO 2312/2316 08015G30KT 3000 TSRA 
     BECMG 2318/2322 NSW BKN030
       
LTBA 230550Z 01017KT 350V050 6000 R05/P1500U -RASN BKN009 BKN015 04/01 Q1022 NOSIG
TAF LTBA 230440Z 2306/2412 03025G35KT 7000 -RA SCT010 BKN025 
     TEMPO 2306/2310 -RASN BKN010 BKN025 
     BECMG 2310/2313 -RASN BKN010 BKN025 
     TEMPO 2315/2318 4000 -SNRA 
     TEMPO 2400/2404 4000 SN
       
LTBF 230550Z 01018KT 9999 -SHRA SCT010 SCT035 BKN100 05/03 Q1018 NOSIG
TAF LTBF 230440Z 2306/2315 01015KT 9999 -SHRA SCT010 SCT035 BKN100 
     TEMPO 2307/2310 01018G28KT
       
LTBG 230530Z 02032G43KT 6000 -SHRA SCT010 BKN030 OVC100 03/02 Q1019 RESHRA TEMPO FM0600 3000 SHRA RMK RWY18 03033G47KT
TAF COR LTBG 230440Z 2306/2315 02028G42KT 6000 -SHRA SCT010 BKN030 OVC100 
     TEMPO 2306/2309 3000 SHRA
       
LTCJ 230550Z 03003KT 350V070 9999 SCT040 BKN100 09/06 Q1022 RMK RWY20 36003KT
TAF LTCJ 230440Z 2306/2406 VRB02KT 9999 SCT040 BKN100 
     TEMPO 2306/2309 4000 -RA BR BKN035 OVC090 
     PROB40 
     TEMPO 2309/2312 -SHRA FEW025CB BKN035 
     TEMPO 2312/2316 -SHRA BKN035 BKN090 
     BECMG 2317/2320 SCT100
       
LTBH 230550Z 04029G39KT 0900 R04/1000N R22/0900N -SN BCFG FEW007 BKN030 OVC090 00/M00 Q1020 RERASN
TAF COR LTBH 230440Z 2306/2315 04028G42KT 6000 -SHRA SCT010 BKN030 OVC100 
     BECMG 2306/2309 -SHSN
       
LTAY 230550Z 15006KT 9999 FEW035 SCT100 BKN200 05/00 Q1015
TAF LTAY 230440Z 2306/2315 VRB02KT 9999 SCT035 BKN100 
     TEMPO 2306/2307 3000 BR 
     BECMG 2310/2312 18012KT
       
LTFH 230550Z VRB01KT 9999 SCT036 BKN100 07/05 Q1018 NOSIG
TAF LTFH 230440Z 2306/2315 22005KT 6000 FEW012 SCT030 BKN100
       
LTBL 230440Z VRB01KT 9999 -SHRA SCT035 BKN100 09/06 Q1014 BECMG 13012KT RMK RWY17 00000KT
TAF LTBL 230440Z 2306/2315 13009KT 9999 SCT035 BKN100 
     TEMPO 2306/2309 -SHRA 
     BECMG 2309/2311 -SHRA 
     BECMG 2313/2315 01013KT
       
LTBU 230550Z 36032G42KT 4000 -RASN SCT008 BKN028 M00/M02 Q1021 RMK RWY22 02027G38KT
TAF LTBU 230440Z 2306/2406 02022G37KT 6000 -RA SCT010 BKN030 
     TEMPO 2306/2309 2500 RASN BKN005 BKN022 
     BECMG 2309/2311 3500 -SN BKN005 BKN020 
     TEMPO 2315/2318 2000 SN 
     TEMPO 2400/2404 2000 SN
       
LTBS 230550Z 01007KT 350V070 9999 FEW030 SCT100 07/06 Q1016 NOSIG RMK RWY19 31005KT 270V350
TAF LTBS 230440Z 2306/2406 VRB02KT 9999 SCT030 
     BECMG 2307/2309 22012KT -SHRA BKN025 
     PROB30 
     TEMPO 2312/2316 -TSRA FEW015CB BKN025 
     BECMG 2315/2317 VRB02KT
       
LTCC 230550Z 00000KT 6000 FEW004 SCT040 BKN100 06/06 Q1022 NOSIG RMK RWY16 VRB01KT
TAF LTCC 230440Z 2306/2406 VRB02KT 9999 SCT040 BKN100 
     TEMPO 2306/2309 4000 -RA BR BKN035 OVC090 
     PROB40 
     TEMPO 2309/2312 -SHRA FEW025CB BKN035 
     TEMPO 2312/2316 -SHRA BKN035 BKN090 
     BECMG 2317/2320 CAVOK
       
LTFD 230550Z 09019G29KT 9999 -SHRA SCT030 BKN090 05/01 Q1018
TAF LTFD 230440Z 2306/2315 08015KT 9999 -SHRA FEW010 SCT030 BKN090 
     TEMPO 2307/2310 08018G28KT
       
LTCA 230550Z 06008KT 9999 BKN033 BKN090 05/03 Q1021 NOSIG
TAF LTCA 230440Z 2306/2315 09009KT 9999 SCT035 BKN100 
     TEMPO 2306/2309 -RA BKN030 OVC080
       
LTAT 230550Z 14002KT 9999 SCT035 BKN090 05/03 Q1021 NOSIG RMK RWY03 00000KT
TAF LTAT 230440Z 2306/2406 VRB02KT 8000 SCT035 BKN090 
     TEMPO 2306/2310 -RA BKN033 BKN090 
     TEMPO 2310/2314 -SHRA BKN033 BKN090 
     PROB30 
     TEMPO 2315/2319 -RA BKN033 BKN090 
     PROB30 2402/2406 4000 -RA BR BKN033 BKN090
       
LTAU 230550Z 00000KT 9999 FEW040 M00/M03 Q1018 NOSIG RMK RWY07 VRB02KT
TAF LTAU 230440Z 2306/2406 VRB02KT 9999 SCT040 
     BECMG 2310/2313 BKN035
       
LTCD 230550Z 09003KT 9999 FEW045 SCT080 03/M02 Q1020 NOSIG
TAF LTCD 230440Z 2306/2315 VRB02KT 9999 FEW045 SCT080
       
LTCE 230550Z VRB02KT 8000 SCT035 BKN080 M05/M08 Q1021 NOSIG RMK RWY08R 00000KT RWY26R VRB02KT RWY08L VRB01KT
TAF LTCE 230440Z 2306/2406 VRB02KT 9999 SCT035 BKN080 
     BECMG 2316/2318 CAVOK
       
LTAC 230550Z 23005KT 9999 SCT040 BKN100 02/M01 Q1016 NOSIG RMK RWY21L 33005KT RWY03L 24003KT RWY21R 35004KT
TAF LTAC 230440Z 2306/2406 VRB02KT 9999 SCT040 BKN100 
     TEMPO 2313/2317 -RA BKN025 BKN090 
     TEMPO 2318/2322 -RASN BKN025 BKN080
       
TAF COR LTBI 230440Z 2306/2315 VRB02KT 9999 SCT035 BKN100 
     TEMPO 2312/2315 -SHRA
       
TAF LTAD 230440Z 2306/2315 VRB02KT 9999 SCT040 BKN100 
     TEMPO 2308/2312 -RA BKN035 BKN090 
     TEMPO 2312/2315 -SHRA BKN035 BKN090
       
TAF LTBK 230440Z 2306/2315 VRB02KT 9999 -SHRA SCT030 BKN100 
     TEMPO 2306/2308 -TSRA FEW015CB BKN025 
     TEMPO 2311/2313 16015G30KT 4000 +TSRA SCT015CB BKN025
       
TAF LTAB 230440Z 2306/2315 VRB02KT 9999 SCT040 BKN100 
     TEMPO 2313/2315 -SHRA BKN025 BKN090
       
LTAG 230550Z 35003KT 9999 FEW030 BKN080 11/10 Q1019 NOSIG
TAF LTAG 230440Z 2306/2406 VRB02KT 9999 BKN035 
     PROB40 
     TEMPO 2313/2317 VRB15KT -TSRA FEW020CB BKN030 
     BECMG 2318/2320 SCT030 BKN100 
     BECMG 2400/2402 BKN030 BKN100
       
LTCN 230550Z 21003KT 6000 SCT030 BKN080 07/06 Q1021 NOSIG
TAF LTCN 230440Z 2306/2315 VRB02KT 9999 SCT035 BKN090 
     TEMPO 2306/2309 -SHRA 
     BECMG 2309/2311 11012KT
       
TAF LTFA 230440Z 2306/2315 13009KT 9999 SCT035 BKN100 
     TEMPO 2306/2309 -SHRA 
     BECMG 2309/2311 -SHRA 
     BECMG 2313/2315 01013KT
       
LTAZ 230550Z 15006KT 9999 FEW040 04/M02 Q1018 RMK RWY29 16006KT
TAF LTAZ 222240Z 2300/2324 VRB02KT CAVOK 
     BECMG 2305/2308 SCT040 
     BECMG 2310/2313 BKN035
       
LTCF 230550Z 00000KT 9999 FEW035 SCT070 M10/M12 Q1021
TAF LTCF 230440Z 2306/2315 VRB02KT 9999 SCT040 BKN070
       
TAF LTAL 230440Z 2306/2315 VRB02KT 2200 BR FEW012 SCT030 BKN100 
     BECMG 2306/2307 4000
       
LTAN 230550Z VRB02KT 9999 SCT040 BKN100 02/M00 Q1016 NOSIG
TAF LTAN 230440Z 2306/2315 VRB02KT 9999 SCT040 BKN100 
     PROB40 
     TEMPO 2312/2315 -SHRA
       
TAF LTBN 230440Z 2306/2315 VRB02KT 9999 SCT035 BKN100
       
LTCR 230550Z 05004KT 9999 BKN045 09/06 Q1022
TAF LTCR 230440Z 2306/2315 VRB02KT 9999 SCT040 BKN100 
     TEMPO 2306/2309 -RA BKN035 BKN090 
     PROB40 
     TEMPO 2309/2312 -SHRA FEW025CB BKN035 
     TEMPO 2312/2315 -SHRA BKN035 BKN090
       
LTAP 230550Z 00000KT 9999 SCT040 BKN100 08/00 Q1016 NOSIG RMK RWY23 00000KT
TAF LTAP 230440Z 2306/2406 VRB02KT 9999 SCT040 BKN100 
     TEMPO 2310/2314 -SHRA BKN033 BKN090 
     BECMG 2313/2316 02012KT 
     TEMPO 2317/2320 -SHRA BKN033 BKN090
       
LTFE 230550Z 07005KT 9999 FEW035 BKN090 07/05 Q1014 NOSIG RMK RWY10 12003KT
TAF LTFE 230440Z 2306/2406 VRB02KT 9999 SCT030 BKN100 
     BECMG 2306/2309 14012KT -SHRA 
     PROB30 
     TEMPO 2310/2314 -TSRA FEW020CB BKN030 
     BECMG 2316/2318 VRB02KT
       
LTCK 230550Z 00000KT 2000 -SN BR FEW017 BKN030 OVC070 M06/M07 Q1024
TAF LTCK 230440Z 2306/2315 VRB02KT 3200 -SN BR SCT010 BKN030 
     TEMPO 2306/2309 1200 SN BR BKN015 OVC025
       
LTAJ 230550Z 10007KT 4500 BR BKN004 BKN016 07/06 Q1020 BECMG TL0650 9999 NSW
TAF LTAJ 230440Z 2306/2406 VRB02KT 9999 SCT030 BKN090 
     TEMPO 2306/2309 4000 -RA BR BKN004 BKN020 
     TEMPO 2306/2309 -SHRA 
     TEMPO 2309/2312 -TSRA FEW020CB BKN030 
     TEMPO 2312/2316 -SHRA FEW020CB BKN030
       
LTFJ 230550Z 02020KT 7000 -RA BKN007 BKN020 03/02 Q1021 NOSIG RMK RWY24 01018KT
TAF LTFJ 230440Z 2306/2406 02020G35KT 7000 -RA BKN008 BKN020 
     TEMPO 2306/2310 4000 RA 
     BECMG 2310/2314 -RASN 
     PROB30 
     TEMPO 2314/2318 3000 SN 
     BECMG 2318/2321 -SN
       
TAF LTBX 230440Z 2306/2315 02020G35KT 4000 -RA BR BKN008 BKN020 
     TEMPO 2306/2310 2000 RA 
     BECMG 2310/2313 -RASN 
     PROB30 
     TEMPO 2313/2315 2000 SN
       
TAF LTCL 230440Z 2306/2315 VRB02KT 9999 SCT040 BKN100 
     TEMPO 2306/2309 4000 BR
       
LTCM 230550Z 25004KT 9999 SCT030 BKN090 06/03 Q1019
TAF LTCM 230440Z 2306/2315 26007KT 9999 SCT030 BKN100
       
TAF COR LTAV 230440Z 2306/2315 VRB02KT 9999 SCT035 BKN100 
     TEMPO 2312/2315 -SHRA
       
LTFC 230550Z 34004KT 290V020 8000 SCT040 BKN180 05/03 Q1016 RMK RWY23 05005KT
TAF LTFC 230440Z 2306/2406 VRB02KT 9999 SCT035 BKN090 
     TEMPO 2306/2310 -SHRA BKN030 BKN080 
     BECMG 2308/2312 20012KT 
     BECMG 2315/2318 VRB02KT
       
LTAW 230550Z VRB02KT 9999 BKN040 BKN100 07/00 Q1018
TAF LTAW 230440Z 2306/2315 VRB02KT 9999 SCT040
       
LTBQ 230550Z 02010KT 350V050 7000 -RA SCT010 BKN020 BKN080 05/04 Q1021 BECMG 4000 BR
TAF AMD LTBQ 230450Z 2306/2315 04005KT 4000 -RA BR FEW010 SCT030 BKN100 
     TEMPO 2306/2310 -SN SCT010 BKN020 BKN080 
     PROB30 
     TEMPO 2310/2314 05015KT 2500 SNRA BR BKN010 BKN018 BKN080
       
LTCG 230550Z 21016KT 9999 BKN110 17/M01 Q1017 NOSIG RMK RWY29 21013KT
TAF LTCG 230440Z 2306/2406 21015KT 9999 BKN100 
     BECMG 2306/2309 VRB02KT CAVOK 
     BECMG 2312/2315 30012KT 
     BECMG 2318/2321 SCT015 BKN028 
     PROB40 2400/2403 BKN009 BKN025
       
LTCI 230550Z 13003KT 040V180 9999 SCT040 02/M06 Q1021 NOSIG
TAF LTCI 230440Z 2306/2315 07005KT 9999 SCT040 BKN080 
     BECMG 2306/2308 30010KT
       
TAF LTBP 230440Z 2306/2315 01008KT 6000 -RA SCT010 BKN020 
     TEMPO 2306/2309 2500 RASN BKN010 BKN020 
     BECMG 2310/2312 -RASN BKN010 BKN020
       
LTBR 230550Z 35007KT 310V030 4500 BR FEW015 BKN030 BKN090 05/04 Q1018 NOSIG RMK RWY07 36006KT
TAF LTBR 230440Z 2306/2406 VRB02KT 3500 -SHRA BR BKN025 BKN080 
     TEMPO 2306/2308 2000 BCFG 
     BECMG 2308/2311 34012KT 7000 
     PROB40 
     TEMPO 2311/2315 34015G25KT 4500 SHRA 
     BECMG 2315/2318 -SHRASN